createdAt,value
2017-12-19T00:00:51.432Z,54.00
2017-12-19T00:02:50.888Z,51.30
2017-12-19T00:03:50.391Z,51.70
2017-12-19T00:05:48.425Z,50.10
2017-12-19T00:06:47.931Z,53.10
2017-12-19T00:08:45.860Z,48.90
2017-12-19T00:09:45.331Z,51.60
2017-12-19T00:11:44.261Z,55.10
2017-12-19T00:12:43.774Z,54.40
2017-12-19T00:14:44.697Z,60.90
2017-12-19T00:15:44.197Z,55.10
2017-12-19T00:17:42.648Z,56.70
2017-12-19T00:18:42.098Z,55.10
2017-12-19T00:20:39.564Z,46.00
2017-12-19T00:21:40.523Z,50.30
2017-12-19T00:23:37.565Z,52.00
2017-12-19T00:24:38.039Z,51.90
2017-12-19T00:26:35.949Z,53.00
2017-12-19T00:27:35.435Z,47.10
2017-12-19T00:29:35.907Z,56.60
2017-12-19T00:30:35.866Z,50.50
2017-12-19T00:32:33.857Z,51.10
2017-12-19T00:33:34.337Z,52.20
2017-12-19T00:35:32.252Z,56.30
2017-12-19T00:36:31.724Z,54.00
2017-12-19T00:38:29.803Z,56.60
2017-12-19T00:39:29.775Z,54.30
2017-12-19T00:41:30.230Z,53.90
2017-12-19T00:42:30.203Z,51.30
2017-12-19T00:44:33.203Z,54.10
2017-12-19T00:45:30.648Z,55.00
2017-12-19T00:47:31.590Z,49.40
2017-12-19T00:48:31.586Z,48.70
2017-12-19T00:50:32.034Z,53.60
2017-12-19T00:51:31.513Z,53.70
2017-12-19T00:53:29.472Z,54.10
2017-12-19T00:54:29.414Z,58.80
2017-12-19T00:56:27.883Z,50.60
2017-12-19T00:57:27.888Z,53.10
2017-12-19T00:59:26.282Z,53.90
2017-12-19T01:00:25.360Z,48.60
2017-12-19T01:02:25.841Z,51.60
2017-12-19T01:03:25.825Z,50.30
2017-12-19T01:05:24.283Z,55.70
2017-12-19T01:06:24.770Z,59.40
2017-12-19T01:08:24.860Z,54.20
2017-12-19T01:09:24.867Z,58.70
2017-12-19T01:11:23.274Z,49.90
2017-12-19T01:12:23.280Z,49.50
2017-12-19T01:14:22.778Z,55.60
2017-12-19T01:15:22.780Z,47.20
2017-12-19T01:17:21.226Z,46.90
2017-12-19T01:18:21.237Z,50.20
2017-12-19T01:20:16.598Z,50.30
2017-12-19T01:21:16.597Z,49.10
2017-12-19T01:23:13.074Z,50.00
2017-12-19T01:24:13.055Z,47.20
2017-12-19T01:26:08.515Z,47.10
2017-12-19T01:27:08.474Z,46.50
2017-12-19T01:29:08.959Z,47.80
2017-12-19T01:30:10.424Z,54.10
2017-12-19T01:32:06.949Z,47.80
2017-12-19T01:33:06.961Z,51.50
2017-12-19T01:35:06.382Z,55.70
2017-12-19T01:36:04.974Z,51.60
2017-12-19T01:38:05.921Z,51.00
2017-12-19T01:39:05.930Z,57.80
2017-12-19T01:41:04.347Z,61.00
2017-12-19T01:42:03.404Z,53.80
2017-12-19T01:44:03.866Z,62.00
2017-12-19T01:45:04.351Z,57.00
2017-12-19T01:47:02.313Z,57.50
2017-12-19T01:48:01.904Z,62.80
2017-12-19T01:49:59.849Z,60.90
2017-12-19T01:51:00.332Z,64.90
2017-12-19T01:53:01.297Z,62.50
2017-12-19T01:54:00.758Z,64.10
2017-12-19T01:55:58.191Z,64.60
2017-12-19T01:56:58.690Z,63.80
2017-12-19T01:58:59.120Z,67.30
2017-12-19T01:59:58.603Z,66.80
2017-12-19T02:01:56.584Z,68.10
2017-12-19T02:02:56.558Z,70.90
2017-12-19T02:04:55.496Z,66.90
2017-12-19T02:05:54.564Z,69.20
2017-12-19T02:07:53.533Z,69.00
2017-12-19T02:08:53.025Z,69.70
2017-12-19T02:10:49.969Z,81.10
2017-12-19T02:11:49.397Z,78.40
2017-12-19T02:13:45.365Z,72.60
2017-12-19T02:14:45.316Z,70.50
2017-12-19T02:16:42.780Z,70.80
2017-12-19T02:17:41.364Z,74.70
2017-12-19T02:19:37.712Z,70.90
2017-12-19T02:20:37.197Z,77.00
2017-12-19T02:22:33.642Z,75.90
2017-12-19T02:23:33.106Z,67.90
2017-12-19T02:25:34.567Z,76.70
2017-12-19T02:26:33.540Z,67.10
2017-12-19T02:28:31.736Z,70.70
2017-12-19T02:29:31.755Z,70.90
2017-12-19T02:31:29.785Z,71.50
2017-12-19T02:32:30.172Z,70.70
2017-12-19T02:34:29.130Z,68.20
2017-12-19T02:35:28.110Z,72.40
2017-12-19T02:37:26.065Z,70.40
2017-12-19T02:38:25.515Z,64.30
2017-12-19T02:40:25.001Z,74.40
2017-12-19T02:41:23.499Z,70.30
2017-12-19T02:43:21.597Z,69.90
2017-12-19T02:44:21.592Z,75.80
2017-12-19T02:46:18.531Z,76.90
2017-12-19T02:47:18.026Z,71.70
2017-12-19T02:49:14.451Z,69.10
2017-12-19T02:50:14.437Z,75.20
2017-12-19T02:52:11.450Z,68.10
2017-12-19T02:53:11.390Z,70.40
2017-12-19T02:55:09.854Z,77.10
2017-12-19T02:56:09.838Z,70.90
2017-12-19T02:58:08.287Z,73.50
2017-12-19T02:59:08.819Z,73.50
2017-12-19T03:01:06.706Z,73.90
2017-12-19T03:02:05.282Z,72.70
2017-12-19T03:04:04.736Z,69.80
2017-12-19T03:05:03.332Z,72.50
2017-12-19T03:07:02.297Z,73.40
2017-12-19T03:08:01.264Z,71.20
2017-12-19T03:09:59.221Z,64.90
2017-12-19T03:10:59.181Z,71.60
2017-12-19T03:12:57.230Z,70.10
2017-12-19T03:13:57.209Z,70.50
2017-12-19T03:15:59.161Z,65.00
2017-12-19T03:16:58.157Z,65.90
2017-12-19T03:18:57.081Z,62.50
2017-12-19T03:19:56.585Z,66.90
2017-12-19T03:21:53.641Z,62.90
2017-12-19T03:22:53.611Z,64.80
2017-12-19T03:24:51.583Z,69.70
2017-12-19T03:25:52.043Z,62.50
2017-12-19T03:27:49.982Z,65.20
2017-12-19T03:28:50.477Z,61.90
2017-12-19T03:30:47.561Z,64.80
2017-12-19T03:31:47.491Z,58.60
2017-12-19T03:33:46.871Z,62.50
2017-12-19T03:34:45.405Z,54.70
2017-12-19T03:36:43.870Z,55.30
2017-12-19T03:37:43.441Z,58.50
2017-12-19T03:39:41.878Z,63.20
2017-12-19T03:40:41.884Z,60.70
2017-12-19T03:42:39.303Z,63.30
2017-12-19T03:43:39.274Z,65.50
2017-12-19T03:45:37.291Z,61.10
2017-12-19T03:46:38.215Z,58.20
2017-12-19T03:48:35.360Z,53.00
2017-12-19T03:49:35.353Z,52.30
2017-12-19T03:51:31.314Z,55.60
2017-12-19T03:52:31.795Z,58.30
2017-12-19T03:54:27.285Z,56.00
2017-12-19T03:55:27.722Z,58.40
2017-12-19T03:57:25.226Z,54.80
2017-12-19T03:58:25.178Z,54.00
2017-12-19T04:00:23.601Z,55.10
2017-12-19T04:01:23.079Z,52.10
2017-12-19T04:03:21.033Z,56.20
2017-12-19T04:04:21.042Z,53.20
2017-12-19T04:06:20.455Z,57.10
2017-12-19T04:07:19.036Z,61.80
2017-12-19T04:09:17.037Z,58.50
2017-12-19T04:10:17.496Z,56.90
2017-12-19T04:12:12.910Z,53.90
2017-12-19T04:13:12.919Z,54.50
2017-12-19T04:15:08.843Z,53.20
2017-12-19T04:16:09.381Z,59.00
2017-12-19T04:18:07.295Z,52.10
2017-12-19T04:19:07.284Z,55.30
2017-12-19T04:21:07.235Z,53.80
2017-12-19T04:22:07.205Z,57.90
2017-12-19T04:24:05.198Z,59.00
2017-12-19T04:25:05.237Z,60.10
2017-12-19T04:27:03.620Z,59.80
2017-12-19T04:28:03.067Z,60.70
2017-12-19T04:30:02.053Z,60.10
2017-12-19T04:31:01.519Z,63.40
2017-12-19T04:33:00.455Z,62.50
2017-12-19T04:33:59.021Z,61.40
2017-12-19T04:35:56.963Z,58.80
2017-12-19T04:36:56.946Z,58.10
2017-12-19T04:38:56.820Z,56.10
2017-12-19T04:39:55.926Z,55.10
2017-12-19T04:41:53.457Z,52.60
2017-12-19T04:42:53.018Z,49.20
2017-12-19T04:44:52.516Z,50.70
2017-12-19T04:45:51.972Z,57.10
2017-12-19T04:47:50.026Z,52.00
2017-12-19T04:48:48.960Z,60.40
2017-12-19T04:50:47.453Z,51.80
2017-12-19T04:51:48.401Z,53.60
2017-12-19T04:53:46.322Z,52.80
2017-12-19T04:54:44.914Z,50.70
2017-12-19T04:56:43.378Z,56.00
2017-12-19T04:57:43.872Z,59.10
2017-12-19T04:59:41.922Z,54.20
2017-12-19T05:00:40.893Z,56.10
2017-12-19T05:02:39.833Z,56.50
2017-12-19T05:03:39.852Z,60.90
2017-12-19T05:05:40.378Z,56.80
2017-12-19T05:06:39.866Z,62.40
2017-12-19T05:08:38.816Z,55.70
2017-12-19T05:09:37.286Z,56.90
2017-12-19T05:11:36.250Z,57.70
2017-12-19T05:12:35.739Z,52.90
2017-12-19T05:14:34.669Z,53.10
2017-12-19T05:15:33.153Z,49.50
2017-12-19T05:17:32.120Z,54.00
2017-12-19T05:18:31.075Z,52.80
2017-12-19T05:20:28.998Z,58.80
2017-12-19T05:21:30.514Z,53.40
2017-12-19T05:23:28.423Z,51.40
2017-12-19T05:24:27.931Z,49.60
2017-12-19T05:26:22.970Z,48.70
2017-12-19T05:27:23.493Z,49.70
2017-12-19T05:29:18.898Z,54.20
2017-12-19T05:30:18.873Z,49.80
2017-12-19T05:32:15.824Z,49.20
2017-12-19T05:33:15.840Z,47.60
2017-12-19T05:35:12.751Z,53.20
2017-12-19T05:36:12.752Z,52.70
2017-12-19T05:38:13.196Z,54.10
2017-12-19T05:39:13.213Z,59.90
2017-12-19T05:41:11.256Z,53.30
2017-12-19T05:42:11.227Z,49.40
2017-12-19T05:44:10.654Z,54.10
2017-12-19T05:45:10.174Z,54.90
2017-12-19T05:47:05.213Z,53.30
2017-12-19T05:48:05.190Z,55.90
2017-12-19T05:50:04.642Z,49.70
2017-12-19T05:51:03.224Z,51.60
2017-12-19T05:53:01.150Z,46.90
2017-12-19T05:54:01.142Z,48.90
2017-12-19T05:56:01.635Z,52.10
2017-12-19T05:57:02.112Z,46.40
2017-12-19T05:59:01.061Z,44.00
2017-12-19T05:59:59.644Z,46.00
2017-12-19T06:01:57.664Z,54.60
2017-12-19T06:02:57.682Z,49.70
2017-12-19T06:04:55.628Z,47.60
2017-12-19T06:05:55.581Z,48.20
2017-12-19T06:07:54.550Z,52.20
2017-12-19T06:08:53.504Z,49.00
2017-12-19T06:10:53.919Z,48.40
2017-12-19T06:11:53.920Z,53.50
2017-12-19T06:13:51.897Z,52.70
2017-12-19T06:14:51.893Z,52.10
2017-12-19T06:16:50.797Z,53.00
2017-12-19T06:17:49.906Z,55.80
2017-12-19T06:19:47.862Z,47.70
2017-12-19T06:20:47.814Z,46.90
2017-12-19T06:22:45.743Z,48.70
2017-12-19T06:23:45.758Z,47.40
2017-12-19T06:25:43.680Z,48.60
2017-12-19T06:26:44.183Z,48.80
2017-12-19T06:28:41.621Z,51.80
2017-12-19T06:29:41.601Z,49.30
2017-12-19T06:31:40.562Z,53.30
2017-12-19T06:32:40.070Z,56.20
2017-12-19T06:34:37.492Z,59.60
2017-12-19T06:35:38.911Z,56.60
2017-12-19T06:37:35.521Z,57.90
2017-12-19T06:38:36.411Z,63.30
2017-12-19T06:40:33.412Z,59.90
2017-12-19T06:41:33.440Z,56.40
2017-12-19T06:43:31.387Z,53.50
2017-12-19T06:44:31.353Z,59.00
2017-12-19T06:46:29.311Z,51.60
2017-12-19T06:47:29.267Z,61.30
2017-12-19T06:49:29.221Z,59.90
2017-12-19T06:50:27.293Z,58.00
2017-12-19T06:52:25.277Z,55.30
2017-12-19T06:53:25.288Z,59.20
2017-12-19T06:55:23.205Z,60.40
2017-12-19T06:56:23.161Z,57.10
2017-12-19T06:58:21.101Z,57.10
2017-12-19T06:59:21.610Z,62.10
2017-12-19T07:01:19.541Z,58.30
2017-12-19T07:02:19.086Z,56.80
2017-12-19T07:04:19.520Z,63.10
2017-12-19T07:05:21.028Z,59.70
2017-12-19T07:07:17.982Z,56.30
2017-12-19T07:08:17.468Z,54.40
2017-12-19T07:10:15.372Z,65.40
2017-12-19T07:11:15.366Z,57.10
2017-12-19T07:13:11.309Z,61.60
2017-12-19T07:14:11.299Z,64.70
2017-12-19T07:16:08.799Z,60.40
2017-12-19T07:17:08.088Z,59.10
2017-12-19T07:19:06.524Z,63.90
2017-12-19T07:20:06.533Z,64.70
2017-12-19T07:22:04.508Z,60.40
2017-12-19T07:23:04.040Z,54.70
2017-12-19T07:25:02.104Z,64.70
2017-12-19T07:26:02.100Z,66.80
2017-12-19T07:27:58.070Z,63.10
2017-12-19T07:28:58.069Z,62.90
2017-12-19T07:30:56.004Z,61.30
2017-12-19T07:31:55.934Z,58.80
2017-12-19T07:33:51.887Z,59.40
2017-12-19T07:34:51.921Z,63.90
2017-12-19T07:36:47.831Z,68.40
2017-12-19T07:37:48.755Z,81.70
2017-12-19T07:39:43.751Z,62.80
2017-12-19T07:40:44.249Z,62.70
2017-12-19T07:42:41.216Z,69.50
2017-12-19T07:43:40.199Z,69.80
2017-12-19T07:45:36.135Z,65.70
2017-12-19T07:46:35.618Z,65.10
2017-12-19T07:48:31.572Z,85.40
2017-12-19T07:49:31.545Z,78.80
2017-12-19T07:51:27.991Z,74.50
2017-12-19T07:52:27.470Z,82.70
2017-12-19T07:54:23.428Z,90.40
2017-12-19T07:55:23.376Z,83.20
2017-12-19T07:57:20.338Z,81.80
2017-12-19T07:58:19.337Z,76.00
2017-12-19T08:00:15.801Z,77.80
2017-12-19T08:01:15.294Z,75.10
2017-12-19T08:03:13.262Z,84.00
2017-12-19T08:04:13.196Z,89.40
2017-12-19T08:06:11.223Z,74.90
2017-12-19T08:07:11.246Z,72.00
2017-12-19T08:09:09.697Z,79.50
2017-12-19T08:10:09.686Z,84.60
2017-12-19T08:12:07.161Z,78.90
2017-12-19T08:13:07.083Z,79.60
2017-12-19T08:15:05.074Z,68.90
2017-12-19T08:16:05.528Z,76.60
2017-12-19T08:18:00.930Z,67.70
2017-12-19T08:19:00.934Z,74.30
2017-12-19T08:20:56.851Z,71.50
2017-12-19T08:21:56.853Z,71.70
2017-12-19T08:23:52.758Z,72.30
2017-12-19T08:24:52.783Z,71.30
2017-12-19T08:26:48.753Z,82.50
2017-12-19T08:27:48.696Z,76.60
2017-12-19T08:29:44.645Z,66.90
2017-12-19T08:30:44.646Z,70.90
2017-12-19T08:32:41.082Z,70.20
2017-12-19T08:33:40.583Z,68.70
2017-12-19T08:35:36.543Z,79.60
2017-12-19T08:36:37.022Z,78.20
2017-12-19T08:38:35.458Z,78.00
2017-12-19T08:39:34.521Z,86.60
2017-12-19T08:41:33.001Z,86.30
2017-12-19T08:42:33.514Z,85.10
2017-12-19T08:44:29.025Z,76.60
2017-12-19T08:45:28.514Z,86.40
2017-12-19T08:47:27.443Z,87.00
2017-12-19T08:48:26.542Z,85.90
2017-12-19T08:50:24.581Z,91.70
2017-12-19T08:51:24.600Z,88.00
2017-12-19T08:53:20.593Z,79.90
2017-12-19T08:54:21.042Z,78.90
2017-12-19T08:56:18.999Z,66.60
2017-12-19T08:57:18.602Z,72.60
2017-12-19T08:59:15.061Z,85.50
2017-12-19T09:00:14.551Z,81.30
2017-12-19T09:02:12.519Z,88.60
2017-12-19T09:03:12.478Z,80.60
2017-12-19T09:05:08.916Z,68.60
2017-12-19T09:06:08.928Z,77.50
2017-12-19T09:08:06.381Z,78.30
2017-12-19T09:09:06.346Z,76.70
2017-12-19T09:11:02.254Z,77.10
2017-12-19T09:12:02.233Z,75.90
2017-12-19T09:13:58.235Z,74.00
2017-12-19T09:14:58.692Z,78.50
2017-12-19T09:16:56.197Z,78.50
2017-12-19T09:17:57.124Z,66.10
2017-12-19T09:19:52.224Z,75.30
2017-12-19T09:20:52.657Z,84.50
2017-12-19T09:22:48.131Z,73.10
2017-12-19T09:23:48.072Z,81.00
2017-12-19T09:25:46.021Z,73.40
2017-12-19T09:26:46.520Z,72.90
2017-12-19T09:28:42.487Z,68.30
2017-12-19T09:29:42.041Z,74.30
2017-12-19T09:31:37.870Z,71.40
2017-12-19T09:32:37.890Z,72.20
2017-12-19T09:34:35.922Z,69.20
2017-12-19T09:35:35.916Z,75.50
2017-12-19T09:37:32.858Z,66.60
2017-12-19T09:38:31.876Z,70.40
2017-12-19T09:40:29.329Z,55.00
2017-12-19T09:41:27.789Z,55.80
2017-12-19T09:43:23.735Z,62.00
2017-12-19T09:44:23.712Z,57.50
2017-12-19T09:46:19.689Z,58.40
2017-12-19T09:47:19.661Z,61.00
2017-12-19T09:49:16.644Z,54.80
2017-12-19T09:50:15.589Z,51.70
2017-12-19T09:52:11.538Z,64.00
2017-12-19T09:53:11.503Z,57.80
2017-12-19T09:55:08.472Z,50.30
2017-12-19T09:56:07.449Z,53.60
2017-12-19T09:58:05.394Z,55.70
2017-12-19T09:59:05.401Z,49.60
2017-12-19T10:01:01.855Z,43.90
2017-12-19T10:02:01.294Z,57.70
2017-12-19T10:03:57.225Z,57.70
2017-12-19T10:04:57.223Z,57.30
2017-12-19T10:06:54.193Z,56.00
2017-12-19T10:07:53.150Z,60.00
2017-12-19T10:09:50.103Z,49.50
2017-12-19T10:10:49.095Z,58.90
2017-12-19T10:12:45.519Z,57.00
2017-12-19T10:13:45.025Z,54.10
2017-12-19T10:15:41.467Z,53.40
2017-12-19T10:16:40.935Z,61.60
2017-12-19T10:18:36.893Z,63.50
2017-12-19T10:19:36.888Z,58.30
2017-12-19T10:21:35.332Z,64.20
2017-12-19T10:22:33.852Z,59.00
2017-12-19T10:24:29.781Z,58.10
2017-12-19T10:25:29.782Z,57.90
2017-12-19T10:27:28.787Z,61.30
2017-12-19T10:28:28.736Z,57.70
2017-12-19T10:30:26.797Z,61.50
2017-12-19T10:31:25.788Z,54.40
2017-12-19T10:33:24.913Z,57.60
2017-12-19T10:34:23.763Z,61.50
2017-12-19T10:36:22.694Z,58.80
2017-12-19T10:37:21.667Z,63.90
2017-12-19T10:39:22.674Z,59.10
2017-12-19T10:40:23.668Z,61.50
2017-12-19T10:42:22.602Z,58.00
2017-12-19T10:43:22.629Z,57.50
2017-12-19T10:45:18.486Z,59.20
2017-12-19T10:46:18.494Z,56.80
2017-12-19T10:48:19.457Z,53.90
2017-12-19T10:49:18.948Z,56.70
2017-12-19T10:51:19.402Z,57.40
2017-12-19T10:52:19.370Z,55.30
2017-12-19T10:54:21.349Z,59.20
2017-12-19T10:55:19.804Z,60.50
2017-12-19T10:57:22.791Z,57.40
2017-12-19T10:58:21.358Z,68.90
2017-12-19T11:00:20.223Z,59.40
2017-12-19T11:01:19.296Z,61.70
2017-12-19T11:03:15.814Z,66.10
2017-12-19T11:04:15.222Z,60.50
2017-12-19T11:06:13.689Z,58.70
2017-12-19T11:07:12.671Z,63.40
2017-12-19T11:09:10.614Z,67.90
2017-12-19T11:10:10.628Z,62.30
2017-12-19T11:12:07.079Z,70.00
2017-12-19T11:13:06.027Z,61.40
2017-12-19T11:15:05.490Z,55.30
2017-12-19T11:16:04.791Z,55.60
2017-12-19T11:18:02.924Z,62.00
2017-12-19T11:19:02.930Z,62.50
2017-12-19T11:21:03.035Z,51.90
2017-12-19T11:22:03.006Z,58.20
2017-12-19T11:24:02.381Z,55.30
2017-12-19T11:25:01.452Z,64.20
2017-12-19T11:27:01.432Z,59.10
2017-12-19T11:28:00.920Z,58.30
2017-12-19T11:29:58.873Z,56.30
2017-12-19T11:30:58.842Z,58.30
2017-12-19T11:32:58.351Z,55.10
2017-12-19T11:33:57.815Z,58.40
2017-12-19T11:35:57.845Z,62.40
2017-12-19T11:36:57.312Z,60.50
2017-12-19T11:38:56.764Z,64.30
2017-12-19T11:39:55.255Z,59.10
2017-12-19T11:41:53.779Z,70.10
2017-12-19T11:42:53.232Z,63.30
2017-12-19T11:44:53.675Z,66.50
2017-12-19T11:45:53.851Z,63.50
2017-12-19T11:47:52.150Z,64.40
2017-12-19T11:48:52.647Z,60.10
2017-12-19T11:50:52.316Z,62.10
2017-12-19T11:51:52.104Z,58.70
2017-12-19T11:53:54.648Z,64.90
2017-12-19T11:54:52.988Z,67.80
2017-12-19T11:56:50.545Z,60.40
2017-12-19T11:57:50.612Z,66.70
2017-12-19T11:59:52.040Z,61.40
2017-12-19T12:00:52.320Z,60.00
2017-12-19T12:02:50.940Z,60.30
2017-12-19T12:03:49.771Z,67.10
2017-12-19T12:05:50.217Z,57.00
2017-12-19T12:06:47.735Z,57.60
2017-12-19T12:08:45.942Z,60.10
2017-12-19T12:09:46.683Z,50.70
2017-12-19T12:11:50.394Z,52.40
2017-12-19T12:12:46.298Z,51.50
2017-12-19T12:14:47.706Z,49.70
2017-12-19T12:15:46.670Z,44.60
2017-12-19T12:17:46.069Z,52.30
2017-12-19T12:18:45.558Z,55.00
2017-12-19T12:20:40.818Z,44.70
2017-12-19T12:21:40.754Z,45.60
2017-12-19T12:23:42.772Z,48.60
2017-12-19T12:24:41.222Z,52.40
2017-12-19T12:26:41.630Z,43.70
2017-12-19T12:27:41.648Z,51.10
2017-12-19T12:29:58.451Z,46.70
2017-12-19T12:30:43.356Z,46.30
2017-12-19T12:32:40.160Z,49.20
2017-12-19T12:33:40.139Z,46.90
2017-12-19T12:35:40.144Z,51.40
2017-12-19T12:36:38.132Z,56.00
2017-12-19T12:38:38.613Z,43.70
2017-12-19T12:39:38.551Z,45.60
2017-12-19T12:41:44.011Z,50.50
2017-12-19T12:42:43.995Z,47.00
2017-12-19T12:44:44.037Z,47.10
2017-12-19T12:45:43.960Z,47.10
2017-12-19T12:47:44.867Z,48.80
2017-12-19T12:48:44.367Z,47.60
2017-12-19T12:50:44.353Z,54.00
2017-12-19T12:51:44.295Z,49.90
2017-12-19T12:53:45.738Z,51.40
2017-12-19T12:54:45.262Z,54.50
2017-12-19T12:56:45.730Z,49.10
2017-12-19T12:57:45.155Z,47.00
2017-12-19T12:59:45.706Z,57.10
2017-12-19T13:00:45.671Z,48.00
2017-12-19T13:02:46.605Z,50.00
2017-12-19T13:03:46.050Z,61.60
2017-12-19T13:05:42.066Z,45.80
2017-12-19T13:06:42.572Z,52.80
2017-12-19T13:08:43.953Z,52.70
2017-12-19T13:09:43.884Z,53.40
2017-12-19T13:11:39.974Z,53.80
2017-12-19T13:12:40.490Z,48.90
2017-12-19T13:14:37.932Z,52.20
2017-12-19T13:15:38.422Z,50.70
2017-12-19T13:17:38.366Z,50.70
2017-12-19T13:18:38.878Z,53.60
2017-12-19T13:20:34.288Z,53.50
2017-12-19T13:21:34.303Z,61.00
2017-12-19T13:23:32.749Z,47.10
2017-12-19T13:24:32.318Z,50.50
2017-12-19T13:26:30.842Z,52.10
2017-12-19T13:27:30.266Z,57.50
2017-12-19T13:29:26.721Z,52.30
2017-12-19T13:30:26.219Z,53.80
2017-12-19T13:32:22.208Z,49.90
2017-12-19T13:33:22.182Z,58.70
2017-12-19T13:35:18.113Z,60.10
2017-12-19T13:36:18.127Z,53.90
2017-12-19T13:38:17.589Z,49.80
2017-12-19T13:39:16.073Z,55.20
2017-12-19T13:41:18.000Z,66.50
2017-12-19T13:42:16.465Z,60.00
2017-12-19T13:44:14.426Z,66.90
2017-12-19T13:45:14.400Z,70.30
2017-12-19T13:47:10.858Z,65.70
2017-12-19T13:48:10.352Z,65.80
2017-12-19T13:50:06.285Z,59.30
2017-12-19T13:51:06.281Z,60.40
2017-12-19T13:53:03.227Z,64.40
2017-12-19T13:54:03.233Z,56.20
2017-12-19T13:55:58.712Z,58.30
2017-12-19T13:56:58.204Z,56.30
2017-12-19T13:58:54.178Z,62.00
2017-12-19T13:59:54.162Z,60.60
2017-12-19T14:01:52.081Z,62.30
2017-12-19T14:02:52.083Z,60.20
2017-12-19T14:04:53.526Z,60.80
2017-12-19T14:05:53.039Z,58.20
2017-12-19T14:07:50.999Z,55.00
2017-12-19T14:08:50.589Z,60.10
2017-12-19T14:10:49.066Z,54.50
2017-12-19T14:11:48.589Z,53.80
2017-12-19T14:13:46.578Z,56.30
2017-12-19T14:14:46.550Z,57.50
2017-12-19T14:16:47.530Z,53.90
2017-12-19T14:17:47.530Z,52.30
2017-12-19T14:19:45.575Z,60.20
2017-12-19T14:20:45.581Z,54.70
2017-12-19T14:22:44.518Z,56.70
2017-12-19T14:23:43.521Z,57.10
2017-12-19T14:25:39.434Z,61.10
2017-12-19T14:26:39.427Z,60.50
2017-12-19T14:28:35.448Z,55.30
2017-12-19T14:29:35.894Z,67.10
2017-12-19T14:31:35.792Z,58.70
2017-12-19T14:32:35.795Z,59.00
2017-12-19T14:34:34.730Z,53.10
2017-12-19T14:35:34.542Z,54.90
2017-12-19T14:37:32.992Z,56.70
2017-12-19T14:38:32.466Z,55.10
2017-12-19T14:40:31.428Z,58.10
2017-12-19T14:41:30.372Z,55.40
2017-12-19T14:43:29.832Z,49.80
2017-12-19T14:44:28.314Z,54.60
2017-12-19T14:46:26.269Z,51.20
2017-12-19T14:47:26.294Z,49.60
2017-12-19T14:49:24.181Z,49.10
2017-12-19T14:50:24.212Z,44.80
2017-12-19T14:52:22.636Z,51.60
2017-12-19T14:53:22.093Z,44.10
2017-12-19T14:55:18.052Z,54.50
2017-12-19T14:56:18.137Z,53.00
2017-12-19T14:58:14.043Z,53.40
2017-12-19T14:59:13.991Z,41.30
2017-12-19T15:01:11.460Z,47.60
2017-12-19T15:02:09.907Z,48.00
2017-12-19T15:04:05.837Z,44.00
2017-12-19T15:05:05.838Z,48.80
2017-12-19T15:07:01.794Z,43.70
2017-12-19T15:08:01.758Z,42.40
2017-12-19T15:10:00.221Z,44.00
2017-12-19T15:10:59.840Z,47.30
2017-12-19T15:12:55.770Z,41.10
2017-12-19T15:13:55.739Z,49.00
2017-12-19T15:15:51.709Z,45.20
2017-12-19T15:16:51.712Z,47.30
2017-12-19T15:18:49.627Z,43.00
2017-12-19T15:19:50.151Z,39.90
2017-12-19T15:21:45.560Z,42.00
2017-12-19T15:22:45.566Z,45.00
2017-12-19T15:24:44.055Z,43.30
2017-12-19T15:25:47.243Z,46.40
2017-12-19T15:27:39.481Z,46.00
2017-12-19T15:28:39.465Z,42.70
2017-12-19T15:30:36.349Z,50.20
2017-12-19T15:31:35.923Z,43.10
2017-12-19T15:33:33.464Z,45.60
2017-12-19T15:34:34.370Z,47.70
2017-12-19T15:36:31.406Z,47.20
2017-12-19T15:37:31.413Z,46.20
2017-12-19T15:39:29.860Z,53.30
2017-12-19T15:40:29.471Z,54.10
2017-12-19T15:42:27.928Z,46.60
2017-12-19T15:43:27.516Z,44.70
2017-12-19T15:45:26.006Z,42.50
2017-12-19T15:46:25.446Z,46.90
2017-12-19T15:48:24.921Z,51.90
2017-12-19T15:49:23.485Z,47.10
2017-12-19T15:51:21.401Z,48.10
2017-12-19T15:52:21.416Z,49.20
2017-12-19T15:54:19.862Z,53.90
2017-12-19T15:55:19.342Z,44.40
2017-12-19T15:57:17.299Z,47.20
2017-12-19T15:58:17.785Z,42.30
2017-12-19T16:00:15.245Z,55.30
2017-12-19T16:01:15.221Z,50.10
2017-12-19T16:03:11.160Z,44.90
2017-12-19T16:04:11.127Z,47.40
2017-12-19T16:06:07.108Z,44.40
2017-12-19T16:07:07.138Z,45.00
2017-12-19T16:09:04.646Z,44.50
2017-12-19T16:10:03.975Z,47.50
2017-12-19T16:12:02.422Z,46.00
2017-12-19T16:13:02.013Z,41.10
2017-12-19T16:15:00.431Z,44.50
2017-12-19T16:15:59.947Z,45.00
2017-12-19T16:17:58.398Z,49.10
2017-12-19T16:18:57.845Z,54.50
2017-12-19T16:20:55.878Z,49.00
2017-12-19T16:21:55.847Z,45.00
2017-12-19T16:23:53.788Z,41.10
2017-12-19T16:24:53.783Z,48.80
2017-12-19T16:26:52.747Z,45.30
2017-12-19T16:27:51.714Z,46.30
2017-12-19T16:29:49.680Z,45.70
2017-12-19T16:30:49.663Z,46.50
2017-12-19T16:32:47.595Z,59.00
2017-12-19T16:33:47.595Z,53.30
2017-12-19T16:35:43.557Z,42.50
2017-12-19T16:36:43.530Z,41.10
2017-12-19T16:38:40.470Z,41.80
